Terminal Aerodrome Forecast
Issued by NWS

Current Version | Previous Version | Text Only | Print | Product List | Glossary On
Versions: 1 2 3 4 5 6 7 8 9 10
000
FTUS44 KLZK 261700 RRA
TAFLIT
TAF
KLIT 261749Z 2618/2718 13008KT P6SM VCSH SCT020 OVC035
     FM262200 13009KT 5SM -RADZ BR OVC012
     FM270300 15005KT 4SM -RA OVC008 WS020/19045KT
     FM271500 23006KT 3SM BR OVC007=

USA.gov is the U.S. government's official web portal to all federal, state and local government web resources and services.